Data for 02/20/2005

Time Sea-Level Adjusted Pressure Absolute Pressure Temperature Relative Humidity Dew Point   
(mb) (inHg) (mb) (inHg) (C) (F) (%) (C) (F)
00:05 1008 29.77 837 24.72 0.5 32.8 64 -5.6 21.9
00:10 1008 29.77 837 24.72 0.3 32.6 63 -5.9 21.3
00:15 1008 29.77 837 24.72 0.2 32.3 64 -5.8 21.5
00:20 1008 29.77 837 24.72 -0 31.9 65 -5.9 21.4
00:25 1008 29.77 837 24.72 -0.1 31.8 66 -5.8 21.6
00:30 1008 29.77 837 24.72 -0.3 31.4 66 -5.9 21.3
00:35 1008 29.77 837 24.72 -0.4 31.3 65 -6.1 21
00:40 1008 29.77 837 24.72 -0.4 31.2 66 -6 21.2
00:45 1008 29.77 838 24.75 -0.5 31.1 65 -6.3 20.6
00:50 1008 29.77 838 24.75 -0.5 31 64 -6.5 20.3
00:55 1008 29.77 838 24.75 -0.5 31.2 65 -6.3 20.6
01:00 1009 29.8 838 24.75 -0.3 31.5 64 -6.2 20.8
01:05 1009 29.8 838 24.75 -0.2 31.6 64 -6.2 20.9
01:10 1009 29.8 838 24.75 -0.3 31.6 64 -6.2 20.9
01:15 1009 29.8 838 24.75 -0.3 31.5 64 -6.3 20.6
01:20 1009 29.8 838 24.75 -0.3 31.5 66 -5.8 21.5
01:25 1009 29.8 838 24.75 -0.4 31.3 68 -5.6 21.9
01:30 1009 29.8 838 24.75 -0.6 31 69 -5.6 21.9
01:35 1009 29.8 838 24.75 -0.7 30.8 70 -5.4 22.2
01:40 1009 29.8 838 24.75 -0.7 30.7 71 -5.4 22.3
01:45 1009 29.8 838 24.75 -0.7 30.7 71 -5.4 22.2
01:50 1009 29.8 838 24.75 -0.9 30.3 70 -5.7 21.8
01:55 1009 29.8 838 24.75 -1.1 30 67 -6.4 20.4
02:00 1009 29.8 838 24.75 -1.3 29.6 67 -6.7 20
02:05 1009 29.8 838 24.75 -1.3 29.7 69 -6.3 20.7
02:10 1009 29.8 838 24.75 -1.1 30 70 -6 21.3
02:15 1009 29.8 838 24.75 -1 30.1 70 -5.7 21.7
02:20 1009 29.8 838 24.75 -1 30.1 71 -5.6 22
02:25 1009 29.8 838 24.75 -1.2 29.8 74 -5.4 22.3
02:30 1009 29.8 838 24.75 -1.5 29.2 76 -5.2 22.7
02:35 1009 29.8 838 24.75 -1.7 29 77 -5.2 22.7
02:40 1009 29.8 838 24.75 -1.9 28.7 79 -5.1 22.9
02:45 1009 29.8 838 24.75 -2.2 28.1 83 -4.7 23.6
02:50 1009 29.8 838 24.75 -2.5 27.6 89 -4 24.8
02:55 1009 29.8 838 24.75 -2.7 27.2 91 -4 24.9
03:00 1009 29.8 838 24.75 -3 26.6 93 -3.9 25
03:05 1009 29.8 838 24.75 -3.1 26.5 94 -3.9 25
03:10 1009 29.8 838 24.75 -3 26.5 94 -3.9 25.1
03:15 1009 29.8 839 24.78 -3 26.6 94 -3.8 25.2
03:20 1009 29.8 838 24.75 -3 26.6 94 -3.8 25.1
03:25 1009 29.8 838 24.75 -3 26.6 94 -3.8 25.2
03:30 1009 29.8 839 24.78 -3 26.7 94 -3.8 25.2
03:35 1009 29.8 839 24.78 -3.1 26.4 94 -3.9 25
03:40 1009 29.8 839 24.78 -3.2 26.2 94 -4 24.8
03:45 1009 29.8 839 24.78 -3.2 26.2 93 -4.2 24.4
03:50 1009 29.8 839 24.78 -3.3 26.1 92 -4.4 24.1
03:55 1009 29.8 839 24.78 -3.3 26.1 92 -4.3 24.2
04:00 1009 29.8 839 24.78 -3.2 26.2 92 -4.4 24.2
04:05 1009 29.8 838 24.75 -3.2 26.3 91 -4.4 24.1
04:10 1009 29.8 838 24.75 -3.2 26.3 91 -4.4 24.1
04:15 1009 29.8 838 24.75 -3.1 26.3 91 -4.4 24.2
04:20 1009 29.8 839 24.78 -3.2 26.3 91 -4.5 23.9
04:25 1009 29.8 839 24.78 -3.2 26.2 90 -4.6 23.7
04:30 1009 29.8 838 24.75 -3.2 26.2 90 -4.7 23.6
04:35 1009 29.8 838 24.75 -3.3 26 89 -4.9 23.2
04:40 1009 29.8 839 24.78 -3.3 26 87 -5.2 22.7
04:45 1009 29.8 839 24.78 -3.4 25.8 83 -5.8 21.5
04:50 1009 29.8 839 24.78 -3.5 25.8 79 -6.6 20.1
04:55 1009 29.8 839 24.78 -3.5 25.7 79 -6.7 20
05:00 1009 29.8 839 24.78 -3.4 25.9 78 -6.7 20
05:05 1010 29.83 839 24.78 -3.5 25.7 78 -6.9 19.7
05:10 1010 29.83 839 24.78 -3.6 25.6 79 -6.7 19.9
05:15 1010 29.83 839 24.78 -3.6 25.6 80 -6.6 20.1
05:20 1010 29.83 839 24.78 -4 24.9 83 -6.5 20.4
05:25 1010 29.83 839 24.78 -4 24.8 83 -6.5 20.4
05:30 1010 29.83 839 24.78 -3.7 25.3 82 -6.3 20.6
05:35 1010 29.83 839 24.78 -3.6 25.6 80 -6.6 20.1
05:40 1010 29.83 839 24.78 -3.8 25.2 81 -6.6 20.2
05:45 1010 29.83 839 24.78 -4 24.8 80 -6.9 19.5
05:50 1010 29.83 839 24.78 -4.1 24.6 80 -7.1 19.2
05:55 1010 29.83 839 24.78 -4.1 24.7 79 -7.3 18.9
06:00 1010 29.83 839 24.78 -4 24.7 78 -7.3 18.9
06:05 1010 29.83 839 24.78 -4 24.7 79 -7.2 19.1
06:10 1010 29.83 839 24.78 -4 24.7 79 -7.2 19.1
06:15 1010 29.83 839 24.78 -4 24.7 79 -7.2 19.1
06:20 1010 29.83 839 24.78 -4.3 24.4 79 -7.4 18.8
06:25 1010 29.83 839 24.78 -4.4 24 80 -7.4 18.7
06:30 1010 29.83 839 24.78 -4.7 23.5 82 -7.3 18.8
06:35 1010 29.83 839 24.78 -4.5 23.9 80 -7.5 18.6
06:40 1010 29.83 839 24.78 -4.6 23.8 81 -7.4 18.6
06:45 1010 29.83 839 24.78 -4.5 24 80 -7.4 18.7
06:50 1010 29.83 839 24.78 -4.5 23.9 80 -7.5 18.6
06:55 1010 29.83 839 24.78 -4.6 23.7 80 -7.6 18.4
07:00 1010 29.83 839 24.78 -4.5 23.9 79 -7.6 18.4
07:05 1010 29.83 839 24.78 -4.6 23.8 80 -7.5 18.5
07:10 1010 29.83 839 24.78 -4.6 23.7 80 -7.6 18.3
07:15 1010 29.83 839 24.78 -4.5 23.8 79 -7.6 18.3
07:20 1010 29.83 839 24.78 -4.6 23.7 78 -7.8 18
07:25 1010 29.83 839 24.78 -4.9 23.2 81 -7.7 18.2
07:30 1010 29.83 839 24.78 -4.9 23.2 81 -7.7 18.1
07:35 1010 29.83 839 24.78 -5 22.9 81 -7.8 17.9
07:40 1010 29.83 839 24.78 -5.1 22.8 80 -8 17.6
07:45 1010 29.83 839 24.78 -4.9 23.1 80 -7.9 17.8
07:50 1010 29.83 839 24.78 -4.8 23.4 80 -7.7 18.2
07:55 1010 29.83 839 24.78 -4.9 23.2 82 -7.5 18.5
08:00 1010 29.83 839 24.78 -5.1 22.8 83 -7.5 18.5
08:05 1010 29.83 839 24.78 -5 23.1 82 -7.6 18.4
08:10 1010 29.83 839 24.78 -4.6 23.6 81 -7.5 18.6
08:15 1010 29.83 839 24.78 -4.3 24.3 79 -7.3 18.8
08:20 1010 29.83 839 24.78 -4 24.8 78 -7.3 18.9
08:25 1010 29.83 839 24.78 -4 24.8 77 -7.4 18.7
08:30 1010 29.83 839 24.78 -3.9 24.9 77 -7.4 18.6
08:35 1010 29.83 839 24.78 -3.8 25.2 78 -7.2 19.1
08:40 1010 29.83 839 24.78 -3.5 25.6 75 -7.4 18.8
08:45 1010 29.83 839 24.78 -3.3 26.1 74 -7.3 18.9
08:50 1010 29.83 839 24.78 -3.2 26.2 73 -7.4 18.6
08:55 1010 29.83 839 24.78 -3.6 25.6 75 -7.4 18.6
09:00 1010 29.83 839 24.78 -3.2 26.2 72 -7.7 18.2
09:05 1010 29.83 839 24.78 -3.1 26.4 71 -7.7 18.1
09:10 1010 29.83 839 24.78 -3 26.5 69 -7.9 17.8
09:15 1010 29.83 839 24.78 -2.2 28.1 66 -7.8 18
09:20 1010 29.83 839 24.78 -2.1 28.1 67 -7.6 18.4
09:25 1010 29.83 840 24.81 -1.5 29.4 64 -7.3 18.8
09:30 1010 29.83 840 24.81 -1 30.2 63 -7.2 19.1
09:35 1010 29.83 840 24.81 -0.6 31 63 -6.9 19.6
09:40 1011 29.85 840 24.81 -1.1 30 66 -6.6 20.1
09:45 1011 29.85 840 24.81 -1.9 28.6 68 -7.1 19.2
09:50 1011 29.85 840 24.81 -1.8 28.7 68 -6.9 19.5
09:55 1011 29.85 840 24.81 -2.1 28.2 68 -7.2 19
10:00 1011 29.85 840 24.81 -2.1 28.2 68 -7.3 18.9
10:05 1011 29.85 840 24.81 -1.7 28.9 66 -7.3 18.8
10:10 1011 29.85 840 24.81 -1.5 29.2 66 -7.1 19.2
10:15 1011 29.85 840 24.81 -1 30.3 62 -7.3 18.8
10:20 1011 29.85 840 24.81 -1 30.3 66 -6.6 20.1
10:25 1011 29.85 840 24.81 -1.8 28.8 68 -7 19.4
10:30 1011 29.85 840 24.81 -0.9 30.4 63 -7.1 19.2
10:35 1011 29.85 840 24.81 -1.1 30 66 -6.7 20
10:40 1011 29.85 840 24.81 -0.9 30.5 64 -6.8 19.7
10:45 1011 29.85 840 24.81 -1.2 29.9 66 -6.7 19.9
10:50 1011 29.85 840 24.81 -0.9 30.4 64 -6.9 19.5
10:55 1011 29.85 840 24.81 -0.3 31.4 64 -6.3 20.7
11:00 1011 29.85 840 24.81 -0.7 30.7 68 -5.9 21.4
11:05 1011 29.85 840 24.81 -0.3 31.5 67 -5.8 21.6
11:10 1010 29.83 840 24.81 -1.1 30 70 -5.9 21.4
11:15 1010 29.83 840 24.81 -1.1 30 68 -6.3 20.7
11:20 1010 29.83 840 24.81 -0.8 30.5 68 -6.1 21.1
11:25 1010 29.83 840 24.81 -0.6 30.9 69 -5.6 21.9
11:30 1010 29.83 840 24.81 -0.2 31.7 67 -5.6 22
11:35 1010 29.83 840 24.81 0.8 33.5 62 -5.7 21.7
11:40 1010 29.83 839 24.78 0.8 33.4 66 -4.8 23.3
11:45 1010 29.83 839 24.78 1.2 34.1 63 -5.1 22.9
11:50 1010 29.83 839 24.78 1.2 34.2 62 -5.2 22.6
11:55 1010 29.83 839 24.78 1.6 34.8 59 -5.5 22.1
12:00 1010 29.83 839 24.78 1.8 35.2 62 -4.6 23.6
12:05 1010 29.83 839 24.78 1.5 34.6 64 -4.5 23.8
12:10 1010 29.83 839 24.78 0.4 32.7 65 -5.4 22.2
12:15 1010 29.83 839 24.78 0 32.1 68 -5.2 22.6
12:20 1010 29.83 839 24.78 0.2 32.3 66 -5.4 22.4
12:25 1010 29.83 839 24.78 0.5 32.8 67 -5 23
12:30 1010 29.83 839 24.78 0.6 33 66 -5.1 22.8
12:35 1010 29.83 839 24.78 0.4 32.7 66 -5.2 22.6
12:40 1010 29.83 839 24.78 0.3 32.6 67 -5.2 22.7
12:45 1010 29.83 839 24.78 0.6 33 67 -4.9 23.2
12:50 1010 29.83 839 24.78 1 33.7 66 -4.6 23.7
12:55 1010 29.83 839 24.78 0.9 33.6 67 -4.6 23.8
13:00 1010 29.83 839 24.78 0.3 32.6 69 -4.6 23.7
13:05 1010 29.83 839 24.78 0.1 32.3 69 -5 23.1
13:10 1010 29.83 839 24.78 0.3 32.6 70 -4.5 23.9
13:15 1010 29.83 839 24.78 0.5 33 69 -4.6 23.8
13:20 1010 29.83 839 24.78 0.7 33.3 68 -4.5 23.8
13:25 1010 29.83 839 24.78 1.4 34.5 65 -4.5 23.9
13:30 1010 29.83 839 24.78 1.9 35.5 63 -4.3 24.3
13:35 1010 29.83 839 24.78 1.8 35.2 63 -4.6 23.8
13:40 1010 29.83 839 24.78 2.3 36.2 64 -3.7 25.3
13:45 1010 29.83 839 24.78 2.6 36.7 61 -4.1 24.7
13:50 1010 29.83 839 24.78 2.8 37.1 62 -3.9 25.1
13:55 1010 29.83 839 24.78 2.9 37.3 60 -4.1 24.5
14:00 1009 29.8 839 24.78 3 37.5 61 -3.7 25.4
14:05 1009 29.8 839 24.78 2.9 37.2 63 -3.6 25.6
14:10 1009 29.8 839 24.78 3.3 37.9 59 -3.9 24.9
14:15 1009 29.8 839 24.78 3.5 38.4 59 -3.7 25.4
14:20 1009 29.8 839 24.78 3 37.4 64 -3.2 26.2
14:25 1009 29.8 839 24.78 2.8 37 64 -3.3 26
14:30 1009 29.8 839 24.78 3 37.4 63 -3.3 26
14:35 1009 29.8 839 24.78 2.8 37 65 -3.2 26.2
14:40 1009 29.8 838 24.75 2.7 36.9 64 -3.5 25.7
14:45 1009 29.8 838 24.75 2.7 36.8 63 -3.7 25.3
14:50 1009 29.8 838 24.75 2.7 36.9 62 -3.9 25.1
14:55 1009 29.8 838 24.75 2.7 36.9 62 -3.9 25
15:00 1009 29.8 838 24.75 2.4 36.4 64 -3.8 25.2
15:05 1009 29.8 839 24.78 2.9 37.3 62 -3.6 25.5
15:10 1009 29.8 839 24.78 3 37.5 63 -3.3 26
15:15 1009 29.8 839 24.78 3.5 38.3 61 -3.2 26.2
15:20 1009 29.8 839 24.78 2.8 37.1 65 -3.1 26.5
15:25 1010 29.83 839 24.78 2.5 36.5 65 -3.4 25.9
15:30 1010 29.83 839 24.78 2.6 36.6 65 -3.3 26
15:35 1010 29.83 839 24.78 2.6 36.7 65 -3.3 26
15:40 1010 29.83 839 24.78 2.9 37.3 63 -3.3 26
15:45 1010 29.83 839 24.78 3.1 37.6 62 -3.3 26
15:50 1010 29.83 839 24.78 3.1 37.5 65 -3 26.7
15:55 1010 29.83 839 24.78 3.1 37.6 64 -3 26.5
16:00 1010 29.83 839 24.78 3.2 37.8 63 -3.2 26.2
16:05 1010 29.83 839 24.78 3.2 37.8 63 -3.2 26.3
16:10 1010 29.83 839 24.78 3.3 38 61 -3.5 25.8
16:15 1010 29.83 839 24.78 3.2 37.7 63 -3.1 26.5
16:20 1010 29.83 839 24.78 3.2 37.7 61 -3.7 25.4
16:25 1010 29.83 839 24.78 3.4 38.2 59 -3.9 25
16:30 1010 29.83 839 24.78 3.5 38.4 59 -3.8 25.2
16:35 1010 29.83 839 24.78 3.5 38.3 58 -3.9 24.9
16:40 1010 29.83 839 24.78 3.4 38.1 59 -3.9 25
16:45 1010 29.83 839 24.78 3.2 37.7 60 -3.9 25
16:50 1010 29.83 840 24.81 3.1 37.6 59 -4.1 24.7
16:55 1010 29.83 840 24.81 3 37.4 59 -4.2 24.5
17:00 1010 29.83 840 24.81 3.1 37.5 59 -4.1 24.6
17:05 1010 29.83 840 24.81 3 37.5 60 -4.1 24.7
17:10 1010 29.83 840 24.81 2.7 36.8 60 -4.2 24.4
17:15 1010 29.83 840 24.81 2.3 36.2 62 -4.3 24.3
17:20 1010 29.83 840 24.81 2.2 35.9 63 -4.2 24.4
17:25 1010 29.83 840 24.81 2 35.6 63 -4.3 24.3
17:30 1011 29.85 840 24.81 2 35.6 64 -4.2 24.4
17:35 1011 29.85 840 24.81 2.2 35.9 62 -4.3 24.2
17:40 1011 29.85 840 24.81 2.3 36.2 62 -4.3 24.3
17:45 1011 29.85 840 24.81 2.5 36.5 61 -4.3 24.2
17:50 1011 29.85 840 24.81 2.7 36.8 60 -4.3 24.2
17:55 1011 29.85 840 24.81 2.8 37 60 -4.2 24.4
18:00 1011 29.85 840 24.81 2.8 37 60 -4.3 24.3
18:05 1011 29.85 840 24.81 2.7 36.8 60 -4.3 24.3
18:10 1011 29.85 840 24.81 2.5 36.6 60 -4.5 24
18:15 1011 29.85 840 24.81 2.1 35.8 55 -5.9 21.3
18:20 1011 29.85 841 24.83 1.3 34.4 57 -6.3 20.6
18:25 1011 29.85 841 24.83 1.1 34 58 -6.2 20.8
18:30 1011 29.85 841 24.83 1 33.8 58 -6.3 20.6
18:35 1011 29.85 841 24.83 1 33.8 59 -6.2 20.8
18:40 1011 29.85 841 24.83 0.8 33.5 60 -6.1 21
18:45 1012 29.88 841 24.83 0.5 33 61 -6 21.1
18:50 1011 29.85 841 24.83 0.6 33 64 -5.5 22.2
18:55 1011 29.85 841 24.83 0.5 32.8 64 -5.6 22
19:00 1012 29.88 841 24.83 0.2 32.4 65 -5.7 21.8
19:05 1012 29.88 841 24.83 0.3 32.6 64 -5.7 21.7
19:10 1012 29.88 841 24.83 0.1 32.2 64 -5.9 21.5
19:15 1011 29.85 841 24.83 -0.1 31.9 67 -5.5 22.1
19:20 1011 29.85 841 24.83 0.1 32.1 67 -5.3 22.5
19:25 1011 29.85 841 24.83 0.4 32.7 66 -5.2 22.6
19:30 1011 29.85 841 24.83 0.4 32.7 66 -5.2 22.6
19:35 1011 29.85 841 24.83 0.3 32.6 66 -5.3 22.4
19:40 1011 29.85 841 24.83 0.3 32.6 65 -5.4 22.3
19:45 1011 29.85 841 24.83 0.5 32.9 65 -5.3 22.4
19:50 1011 29.85 841 24.83 0.6 33.1 64 -5.4 22.2
19:55 1011 29.85 841 24.83 0.4 32.8 66 -5.3 22.5
20:00 1011 29.85 841 24.83 0.3 32.5 66 -5.4 22.2
20:05 1011 29.85 841 24.83 0.6 33 64 -5.5 22.1
20:10 1011 29.85 841 24.83 0.9 33.6 64 -5.2 22.6
20:15 1011 29.85 841 24.83 0.4 32.8 68 -4.8 23.3
20:20 1011 29.85 841 24.83 0.3 32.5 70 -4.5 23.9
20:25 1011 29.85 841 24.83 0.1 32.2 75 -3.9 25
20:30 1011 29.85 841 24.83 -0 31.9 78 -3.4 26
20:35 1011 29.85 841 24.83 -0 32 80 -3 26.5
20:40 1011 29.85 840 24.81 -0 32 82 -2.7 27.2
20:45 1011 29.85 841 24.83 -0.1 31.8 83 -2.6 27.3
20:50 1011 29.85 841 24.83 -0 32 84 -2.4 27.8
20:55 1012 29.88 841 24.83 0 32 85 -2.2 28
21:00 1012 29.88 841 24.83 0.1 32.3 86 -1.9 28.5
21:05 1012 29.88 841 24.83 0.1 32.1 88 -1.6 29.1
21:10 1012 29.88 841 24.83 -0 32 91 -1.4 29.5
21:15 1012 29.88 841 24.83 -0 32 92 -1.2 29.8
21:20 1012 29.88 841 24.83 -0.2 31.7 93 -1.1 30
21:25 1012 29.88 841 24.83 -0.2 31.6 94 -1.1 30.1
21:30 1012 29.88 841 24.83 -0.3 31.5 95 -1 30.1
21:35 1012 29.88 841 24.83 -0.3 31.5 95 -1 30.3
21:40 1012 29.88 841 24.83 -0.3 31.5 95 -0.9 30.3
21:45 1012 29.88 841 24.83 -0.3 31.4 95 -1.1 30
21:50 1012 29.88 841 24.83 -0.6 30.8 96 -1.3 29.7
21:55 1012 29.88 841 24.83 -0.9 30.4 97 -1.4 29.5
22:00 1012 29.88 841 24.83 -1 30.2 97 -1.5 29.4
22:05 1012 29.88 841 24.83 -1 30.3 97 -1.4 29.4
22:10 1012 29.88 841 24.83 -0.9 30.3 96 -1.4 29.4
22:15 1012 29.88 841 24.83 -1 30.2 97 -1.5 29.3
22:20 1012 29.88 841 24.83 -0.8 30.5 96 -1.4 29.6
22:25 1012 29.88 841 24.83 -0.8 30.6 95 -1.4 29.4
22:30 1012 29.88 841 24.83 -0.8 30.6 96 -1.3 29.6
22:35 1012 29.88 841 24.83 -0.7 30.7 96 -1.3 29.7
22:40 1012 29.88 841 24.83 -0.6 30.9 95 -1.3 29.7
22:45 1012 29.88 841 24.83 -0.4 31.3 94 -1.2 29.9
22:50 1012 29.88 841 24.83 -0.3 31.5 94 -1.2 29.8
22:55 1012 29.88 841 24.83 -0.2 31.6 93 -1.3 29.7
23:00 1012 29.88 841 24.83 -0.5 31 94 -1.4 29.4
23:05 1012 29.88 841 24.83 -0.9 30.4 95 -1.7 29
23:10 1012 29.88 841 24.83 -1 30.2 93 -2 28.3
23:15 1012 29.88 841 24.83 -1.4 29.5 94 -2.2 28.1
23:20 1012 29.88 841 24.83 -1.6 29.1 96 -2.2 28
23:25 1012 29.88 841 24.83 -1.7 28.9 96 -2.3 27.8
23:30 1012 29.88 841 24.83 -1.7 28.9 95 -2.5 27.6
23:35 1012 29.88 841 24.83 -1.6 29.2 93 -2.6 27.4
23:40 1012 29.88 841 24.83 -1.7 28.9 92 -2.8 27
23:45 1012 29.88 841 24.83 -1.9 28.6 93 -2.9 26.8
23:50 1012 29.88 841 24.83 -1.9 28.5 93 -2.9 26.7
23:55 1012 29.88 841 24.83 -2 28.4 93 -3 26.6
24:00 1012 29.88 841 24.83 -2.1 28.2 93 -3.1 26.5